秋田空港の過去48時間の天気

秋田空港 (Akita)

現在時刻: 4/27 14:02 JST (4/27 05:02 UTC) 以下の時間は現地時間です。

過去48時間のMETAR気象情報
時間 風向 風速(m/s) 視程 気温(℃) 湿度(%) 気圧(hPa) 天気現象
27 13:00 西 4 10km以上 17 52 1008
27 12:00 西 4 10km以上 16 51 1009
27 11:00 西北西 7 10km以上 16 48 1010
27 10:00 西 3 10km以上 16 48 1010
27 09:00 南南東 2 10km以上 13 62 1010
27 08:00 南南東 2 10km以上 11 76 1010
27 07:00 南東 4 10km以上 8 81 1011
27 06:40 南東 3 10km以上 7 87 1011
26 21:00 2 10km以上 9 87 1013
26 20:00 2 10km以上 9 87 1013
26 19:00 北北西 2 10km以上 10 82 1012
26 18:00 西 4 10km以上 11 76 1012
26 17:00 西南西 3 10km以上 11 76 1012
26 16:00 西 6 10km以上 11 76 1012
26 15:00 西 9 10km以上 11 76 1011
26 14:00 西 9 10km以上 12 71 1011
26 13:00 西 8 10km以上 12 71 1011
26 12:00 西 8 10km以上 12 71 1011
26 11:00 西 9 10km以上 12 71 1011
26 10:00 西 8 10km以上 11 76 1011
26 09:00 西 9 10km以上 11 76 1010
26 08:00 西 8 10km以上 10 82 1009
26 07:00 西北西 6 10km以上 8 81 1009 弱いしゅう雨
26 06:40 西北西 4 10km以上 8 87 1008 弱いしゅう雨
25 21:15 不定 2 2,500m 12 94 1002 弱いしゅう雨 もや
25 21:00 不定 1 2,000m 12 94 1002 弱いしゅう雨 もや
25 20:49 不定 1 2,000m 12 94 1002 弱いしゅう雨 もや
25 20:00 不定 1 1,400m 12 94 1001 弱いしゅう雨 部分霧 もや
25 19:44 南南東 2 1,800m 12 94 1001 弱いしゅう雨 部分霧 もや
25 19:26 南南東 2 1,200m 12 94 1000 弱いしゅう雨 散在した霧 もや
25 19:16 南東 2 1,500m 12 94 1000 弱いしゅう雨 もや
25 19:00 南南東 2 3,000m 12 94 1000 弱いしゅう雨 もや
25 18:23 南東 3 3,000m 12 94 1000 弱いしゅう雨 もや
25 18:00 南東 2 2,000m 12 94 1000 弱いしゅう雨 もや
25 17:48 南東 2 2,000m 12 94 999 弱いしゅう雨 もや
25 17:15 南東 2 2,000m 12 94 999 弱いしゅう雨 もや
25 17:00 東南東 3 2,500m 12 94 999 弱いしゅう雨 もや
25 16:34 東南東 3 2,500m 12 94 999 弱いしゅう雨 もや
25 16:03 南東 3 3,000m 12 94 999 弱いしゅう雨 もや
25 16:00 南東 3 3,500m 12 94 999 弱いしゅう雨 もや
25 15:37 南東 3 2,000m 12 94 999 弱いしゅう雨 もや
25 15:00 南東 4 4,500m 13 88 999 弱いしゅう雨 もや
RJSK 270400Z 26007KT 240V320 CAVOK 17/07 Q1008
RJSK 270300Z 28007KT 250V320 9999 FEW040 BKN/// 16/06 Q1009
RJSK 270200Z 29013KT 9999 FEW020 BKN/// 16/05 Q1010
RJSK 270100Z 27006KT 240V300 9999 FEW020 BKN/// 16/05 Q1010
RJSK 270000Z 16003KT 120V220 9999 FEW020 BKN/// 13/06 Q1010
RJSK 262300Z 15004KT 110V190 CAVOK 11/07 Q1010
RJSK 262200Z 14007KT 9999 FEW001 BKN/// 08/05 Q1011
RJSK 262140Z 14005KT 9999 FEW001 BKN/// 07/05 Q1011 RMK 1ST001 A2986
RJSK 261200Z 01003KT 320V030 9999 FEW010 BKN014 09/07 Q1013
RJSK 261100Z 01003KT 330V050 9999 FEW015 09/07 Q1013
RJSK 261000Z 33003KT 270V350 9999 SCT015 10/07 Q1012
RJSK 260900Z 26007KT 200V300 9999 FEW012 SCT015 11/07 Q1012
RJSK 260800Z 25005KT 190V270 9999 FEW012 SCT015 BKN020 11/07 Q1012
RJSK 260700Z 26011KT 230V290 9999 FEW012 BKN015 BKN020 11/07 Q1012
RJSK 260600Z 27017KT 9999 FEW013 BKN015 BKN020 11/07 Q1011
RJSK 260500Z 27018KT 9999 SCT015 BKN020 12/07 Q1011
RJSK 260400Z 26016KT 220V280 9999 SCT015 BKN020 12/07 Q1011
RJSK 260300Z 27015KT 230V300 9999 SCT015 BKN020 12/07 Q1011
RJSK 260200Z 26018G29KT 9999 SCT015 BKN020 12/07 Q1011
RJSK 260100Z 27016KT 9999 FEW010 BKN015 BKN020 11/07 Q1011
RJSK 260000Z 28018KT 9999 FEW010 BKN015 BKN020 11/07 Q1010
RJSK 252300Z 28016KT 9999 FEW008 BKN015 BKN020 10/07 Q1009
RJSK 252200Z 30011KT 9999 -SHRA FEW008 SCT030 BKN045 08/05 Q1009
RJSK 252140Z 30007KT 9999 -SHRA FEW005 BKN030 BKN040 08/06 Q1008 RMK 1ST005 5CU030 7CU040 A2979
RJSK 251215Z VRB03KT 2500 -SHRA BR FEW001 SCT003 BKN004 12/11 Q1002 RMK 1ST001 4ST003 5ST004 A2960
RJSK 251200Z VRB02KT 2000 -SHRA BR FEW001 SCT002 BKN003 12/11 Q1002
RJSK 251149Z VRB02KT 2000 -SHRA BR FEW001 BKN002 BKN003 12/11 Q1002 RMK 2ST001 5ST002 6ST003 A2959
RJSK 251100Z VRB02KT 1400 R28/P1800N -SHRA PRFG BR SCT001 BKN002 12/11 Q1001
RJSK 251044Z 16003KT 110V200 1800 R28/P1800N -SHRA PRFG BR FEW001 BKN002 12/11 Q1001 RMK 2ST001 7ST002 A2956 0800E
RJSK 251026Z 15003KT 110V190 1200 R28/P1800N -SHRA BCFG BR SCT001 BKN002 BKN003 12/11 Q1000 RMK 3ST001 6ST002 7ST003 A2955
RJSK 251016Z 14004KT 1500 R28/P1800N -SHRA BR FEW001 BKN002 BKN003 12/11 Q1000 RMK 2ST001 5ST002 6ST003 A2955
RJSK 251000Z 15003KT 3000 -SHRA BR FEW001 SCT003 BKN004 12/11 Q1000
RJSK 250923Z 14005KT 3000 -SHRA BR FEW001 SCT002 BKN005 12/11 Q1000 RMK 1ST001 3ST002 5ST005 A2953
RJSK 250900Z 14004KT 2000 -SHRA BR FEW001 SCT003 BKN004 12/11 Q1000
RJSK 250848Z 14004KT 2000 -SHRA BR FEW001 SCT004 BKN005 12/11 Q0999 RMK 1ST001 3ST004 5ST005 A2953
RJSK 250815Z 14003KT 110V170 2000 -SHRA BR FEW001 SCT003 BKN004 12/11 Q0999 RMK 1ST001 3ST003 5ST004 A2952
RJSK 250800Z 12005KT 2500 -SHRA BR FEW001 SCT003 BKN004 12/11 Q0999
RJSK 250734Z 12006KT 2500 -SHRA BR FEW001 SCT003 BKN004 12/11 Q0999 RMK 1ST001 3ST003 5ST004 A2952
RJSK 250703Z 13005KT 100V160 3000 -SHRA BR FEW001 SCT004 BKN005 12/11 Q0999 RMK 1ST001 4ST004 6ST005 A2952
RJSK 250700Z 13005KT 3500 -SHRA BR FEW001 SCT004 BKN005 12/11 Q0999
RJSK 250637Z 13006KT 2000 -SHRA BR FEW001 SCT003 BKN004 12/11 Q0999 RMK 1ST001 3ST003 5ST004 A2952
RJSK 250600Z 14007KT 4500 -SHRA BR FEW001 SCT005 BKN012 13/11 Q0999